Time;durP1;ratioP1;P1;durP2;ratioP2;P2;SDS_P1;SDS_P2;PMS_P1;PMS_P2;Temp;Humidity;BMP_temperature;BMP_pressure;BME280_temperature;BME280_humidity;BME280_pressure;Samples;Min_cycle;Max_cycle;Signal;HPM_P1;HPM_P2
2022/04/17 00:02:02;;;;;;;8.9;7.4;;;;;;;3.09;83.68652;947.9063;;;;
2022/04/17 00:04:29;;;;;;;11.3;7.7;;;;;;;3.14;83.40625;947.9288;;;;
2022/04/17 00:06:54;;;;;;;9.3;8;;;;;;;3.24;82.91992;947.8925;;;;
2022/04/17 00:09:25;;;;;;;10;7.9;;;;;;;3.2;83.16992;947.8555;;;;
2022/04/17 00:12:23;;;;;;;10.4;8.5;;;;;;;3.15;81.57813;947.8301;;;;
2022/04/17 00:14:51;;;;;;;7.7;6.9;;;;;;;3;82.1084;947.8121;;;;
2022/04/17 00:17:16;;;;;;;7.6;6.5;;;;;;;2.96;82.4502;947.8033;;;;
2022/04/17 00:19:41;;;;;;;7.9;6.5;;;;;;;2.89;82.77344;947.6557;;;;
2022/04/17 00:22:07;;;;;;;7.2;6.1;;;;;;;2.72;83.10938;947.6147;;;;
2022/04/17 00:24:33;;;;;;;8.4;6.1;;;;;;;2.78;82.85254;947.64;;;;
2022/04/17 00:29:23;;;;;;;9;6.6;;;;;;;2.95;81.57227;947.4563;;;;
2022/04/17 00:31:50;;;;;;;7.1;6.4;;;;;;;2.95;81.35742;947.4885;;;;
2022/04/17 00:34:15;;;;;;;8;6.9;;;;;;;2.97;81.25195;947.4734;;;;
2022/04/17 00:36:44;;;;;;;7.5;6.7;;;;;;;2.94;81.53711;947.4306;;;;
2022/04/17 00:39:14;;;;;;;8.7;6.4;;;;;;;2.96;81.58691;947.4091;;;;
2022/04/17 00:41:39;;;;;;;9.3;7;;;;;;;2.92;81.83398;947.3258;;;;
2022/04/17 00:44:04;;;;;;;8.5;7;;;;;;;3.07;81.45996;947.3994;;;;
2022/04/17 00:46:30;;;;;;;8.8;7;;;;;;;3.05;81.53516;947.3666;;;;
2022/04/17 00:48:56;;;;;;;8.2;6.9;;;;;;;3.09;81.46387;947.338;;;;
2022/04/17 00:51:25;;;;;;;7.3;6.5;;;;;;;3.03;81.39844;947.3164;;;;
2022/04/17 01:06:45;;;;;;;7.8;6.6;;;;;;;2.38;84.62207;947.0814;;;;
2022/04/17 01:09:16;;;;;;;8.5;7;;;;;;;2.32;85.37109;946.9901;;;;
2022/04/17 01:11:42;;;;;;;8.5;6.8;;;;;;;2.18;86.04883;946.9738;;;;
2022/04/17 01:14:08;;;;;;;9.2;7.1;;;;;;;2.04;86.60352;946.9255;;;;
2022/04/17 01:16:58;;;;;;;7.7;6.6;;;;;;;2.05;86.69531;946.9525;;;;
2022/04/17 01:19:19;;;;;;;9.1;7.3;;;;;;;1.93;87.22852;946.8781;;;;
2022/04/17 01:21:46;;;;;;;11.2;7.2;;;;;;;1.89;87.67969;946.8819;;;;
2022/04/17 01:29:04;;;;;;;10.7;7.8;;;;;;;2.26;85.08984;946.8714;;;;
2022/04/17 01:31:29;;;;;;;9.4;7.6;;;;;;;2.26;84.58691;946.8953;;;;
2022/04/17 01:33:56;;;;;;;9.4;7.6;;;;;;;2.42;84.24805;946.8811;;;;
2022/04/17 01:36:22;;;;;;;8.5;7.5;;;;;;;2.38;84.11816;946.9377;;;;
2022/04/17 01:38:52;;;;;;;8.4;7.5;;;;;;;2.41;84.05762;946.899;;;;
2022/04/17 01:41:21;;;;;;;8.9;7.3;;;;;;;2.13;84.69434;946.8287;;;;
2022/04/17 01:43:46;;;;;;;9.5;7.3;;;;;;;1.95;85.19531;946.824;;;;
2022/04/17 01:46:11;;;;;;;8.7;7.1;;;;;;;2.09;85.03613;946.8041;;;;
2022/04/17 01:48:37;;;;;;;8.6;7.3;;;;;;;2.14;84.58594;946.7865;;;;
2022/04/17 01:51:05;;;;;;;10.1;7.7;;;;;;;2.2;84.00391;946.7131;;;;
2022/04/17 01:53:30;;;;;;;9.3;7.8;;;;;;;2.12;84.0791;946.7483;;;;
2022/04/17 01:55:59;;;;;;;8.6;7.4;;;;;;;2.01;83.61719;946.7137;;;;
2022/04/17 01:58:29;;;;;;;10.1;7.8;;;;;;;1.95;83.83008;946.7455;;;;
2022/04/17 02:00:54;;;;;;;9.2;8.1;;;;;;;1.87;83.89453;946.6816;;;;
2022/04/17 02:03:19;;;;;;;9.4;7.6;;;;;;;1.84;84.75098;946.6533;;;;
2022/04/17 02:05:50;;;;;;;11.4;8.8;;;;;;;1.91;85.06543;946.6342;;;;
2022/04/17 02:08:20;;;;;;;10.3;8.6;;;;;;;2.02;84.88574;946.6027;;;;
2022/04/17 02:10:51;;;;;;;9.7;8;;;;;;;1.97;85.0332;946.5942;;;;
2022/04/17 02:13:51;;;;;;;9.9;8.4;;;;;;;1.97;84.80957;946.5858;;;;
2022/04/17 02:16:17;;;;;;;10.2;8;;;;;;;1.97;84.57422;946.5606;;;;
2022/04/17 02:18:42;;;;;;;9.5;7.8;;;;;;;2.1;84.47656;946.5898;;;;
2022/04/17 02:21:06;;;;;;;10.1;8;;;;;;;2.11;84.36621;946.5872;;;;
2022/04/17 02:23:33;;;;;;;9.4;7.9;;;;;;;2.01;84.45703;946.5848;;;;
2022/04/17 02:25:58;;;;;;;8.7;7;;;;;;;1.96;84.29102;946.6181;;;;
2022/04/17 02:28:23;;;;;;;11.3;8.3;;;;;;;2.07;84.02148;946.596;;;;
2022/04/17 02:30:49;;;;;;;9.8;8;;;;;;;1.97;84.2832;946.6448;;;;
2022/04/17 02:33:14;;;;;;;9.4;7.9;;;;;;;2.05;83.98633;946.6476;;;;
2022/04/17 02:35:48;;;;;;;9.4;7.9;;;;;;;2.02;84.14648;946.6937;;;;
2022/04/17 02:38:15;;;;;;;11.9;7.9;;;;;;;1.92;84.23926;946.6929;;;;
2022/04/17 02:40:39;;;;;;;9.6;8.3;;;;;;;1.94;84.90332;946.6852;;;;
2022/04/17 02:43:04;;;;;;;10.4;7.7;;;;;;;1.96;84.60449;946.6731;;;;
2022/04/17 02:45:37;;;;;;;10.8;8.5;;;;;;;1.89;84.63867;946.6774;;;;
2022/04/17 02:50:28;;;;;;;9.7;7.7;;;;;;;1.78;85.41895;946.6094;;;;
2022/04/17 02:52:57;;;;;;;9.7;8.4;;;;;;;1.81;84.83301;946.6122;;;;
2022/04/17 02:55:29;;;;;;;10.4;7.9;;;;;;;1.57;85.73438;946.6461;;;;
2022/04/17 02:57:55;;;;;;;9.8;8;;;;;;;1.62;85.65625;946.6094;;;;
2022/04/17 03:00:21;;;;;;;8.7;7.5;;;;;;;1.67;85.4541;946.5723;;;;
2022/04/17 03:05:38;;;;;;;9.4;7.9;;;;;;;1.58;85.29102;946.5764;;;;
2022/04/17 03:07:47;;;;;;;11.1;8.6;;;;;;;1.55;84.87012;946.5539;;;;
2022/04/17 03:16:52;;;;;;;9.9;8.6;;;;;;;1.39;85.48535;946.4914;;;;
2022/04/17 03:19:23;;;;;;;10.2;8.2;;;;;;;1.26;87.0127;946.4716;;;;
2022/04/17 03:21:52;;;;;;;10.1;7.9;;;;;;;1.35;86.77637;946.5302;;;;
2022/04/17 03:24:17;;;;;;;10.7;8.7;;;;;;;1.23;86.88281;946.4875;;;;
2022/04/17 03:26:49;;;;;;;9;6.5;;;;;;;1.18;87.04102;946.4758;;;;
2022/04/17 03:29:20;;;;;;;10.6;7.7;;;;;;;1.18;87.53223;946.4799;;;;
2022/04/17 03:34:56;;;;;;;10.1;7.2;;;;;;;1.04;88.47559;946.475;;;;
2022/04/17 03:37:28;;;;;;;8.9;6.5;;;;;;;1.26;87.34863;946.455;;;;
2022/04/17 03:39:57;;;;;;;10;7.1;;;;;;;1.29;86.85254;946.4106;;;;
2022/04/17 03:42:30;;;;;;;9.8;7.3;;;;;;;1.25;86.74316;946.3376;;;;
2022/04/17 03:44:59;;;;;;;9.7;7;;;;;;;1.08;87.51172;946.3253;;;;
2022/04/17 03:47:27;;;;;;;10.6;7.1;;;;;;;1.12;87.26465;946.4003;;;;
2022/04/17 03:49:53;;;;;;;10.3;7.3;;;;;;;1.01;87.66406;946.3711;;;;
2022/04/17 03:52:20;;;;;;;9.6;6.8;;;;;;;1.02;87.60156;946.3531;;;;
2022/04/17 03:54:50;;;;;;;10.5;7.5;;;;;;;0.89;88.26758;946.282;;;;
2022/04/17 03:57:21;;;;;;;10.3;7.6;;;;;;;0.96;88.34766;946.1736;;;;
2022/04/17 03:59:51;;;;;;;10.2;7.6;;;;;;;0.96;87.99023;946.2206;;;;
2022/04/17 04:02:36;;;;;;;11.6;8.1;;;;;;;1.02;87.94531;946.1279;;;;
2022/04/17 04:05:10;;;;;;;9.6;7.1;;;;;;;1.09;87.32422;946.1423;;;;
2022/04/17 04:07:35;;;;;;;10.4;7.2;;;;;;;1.02;87.42285;946.0959;;;;
2022/04/17 04:10:04;;;;;;;11;7.1;;;;;;;1.04;86.95703;946.1896;;;;
2022/04/17 04:12:29;;;;;;;10.9;7.7;;;;;;;0.8;88.00098;946.1586;;;;
2022/04/17 04:14:55;;;;;;;9.8;6.9;;;;;;;0.88;88.64258;946.1382;;;;
2022/04/17 04:17:20;;;;;;;10;6.9;;;;;;;0.98;87.99414;946.1686;;;;
2022/04/17 04:19:48;;;;;;;9.8;7.1;;;;;;;0.88;87.88379;946.1674;;;;
2022/04/17 04:22:14;;;;;;;10.8;6.8;;;;;;;0.9;88.12207;946.2266;;;;
2022/04/17 04:24:39;;;;;;;9.2;6.6;;;;;;;1;87.68652;946.1841;;;;
2022/04/17 04:29:29;;;;;;;10.3;6.8;;;;;;;1.37;85.90625;946.2784;;;;
2022/04/17 04:31:58;;;;;;;9.7;6.8;;;;;;;1.49;84.70215;946.1826;;;;
2022/04/17 04:34:23;;;;;;;10.9;7.4;;;;;;;1.51;84.14746;946.2922;;;;
2022/04/17 04:36:51;;;;;;;9.4;7.6;;;;;;;1.4;84.21484;946.3005;;;;
2022/04/17 04:39:17;;;;;;;10;7.6;;;;;;;1.31;84.75586;946.2664;;;;
2022/04/17 04:41:42;;;;;;;8.9;6.5;;;;;;;1.19;85.31152;946.2679;;;;
2022/04/17 04:44:07;;;;;;;9.3;6.5;;;;;;;0.99;85.93164;946.1795;;;;
2022/04/17 04:46:38;;;;;;;9;6.6;;;;;;;1.03;86.31934;946.1699;;;;
2022/04/17 04:51:27;;;;;;;10.1;6.8;;;;;;;0.96;87.19727;946.2374;;;;
2022/04/17 04:53:56;;;;;;;8.5;6.8;;;;;;;1.22;86.76953;946.2017;;;;
2022/04/17 04:56:21;;;;;;;10.3;6.8;;;;;;;1.45;85.58984;946.1367;;;;
2022/04/17 04:58:52;;;;;;;8.6;6.6;;;;;;;1.54;84.74512;946.1471;;;;
2022/04/17 05:01:23;;;;;;;9.2;7;;;;;;;1.45;84.65039;946.1085;;;;
2022/04/17 05:03:55;;;;;;;10.4;7.2;;;;;;;1.3;85.30176;946.0628;;;;
2022/04/17 05:06:29;;;;;;;9.9;6.7;;;;;;;1.22;85.9873;946.0328;;;;
2022/04/17 05:08:59;;;;;;;11.3;8.2;;;;;;;1.36;85.70313;946.0167;;;;
2022/04/17 05:11:31;;;;;;;10.1;7.4;;;;;;;1.35;85.50098;946.008;;;;
2022/04/17 05:13:56;;;;;;;10.7;7.9;;;;;;;1.26;85.7168;946.0405;;;;
2022/04/17 05:16:27;;;;;;;11.2;7.9;;;;;;;1.23;86.15625;946.045;;;;
2022/04/17 05:19:19;;;;;;;9.1;6.8;;;;;;;1.31;86.01855;946.0955;;;;
2022/04/17 05:21:31;;;;;;;8.7;7;;;;;;;1.32;86.07422;946.1397;;;;
2022/04/17 05:23:48;;;;;;;9.3;6.8;;;;;;;1.41;86.09473;946.2126;;;;
2022/04/17 05:26:19;;;;;;;9.6;6.6;;;;;;;1.41;85.92676;946.2464;;;;
2022/04/17 05:28:48;;;;;;;8.6;6.1;;;;;;;1.69;85.0332;946.2136;;;;
2022/04/17 05:31:14;;;;;;;10.1;6.8;;;;;;;1.94;84.06348;946.2455;;;;
2022/04/17 05:33:41;;;;;;;9.3;7;;;;;;;1.94;84.03223;946.2567;;;;
2022/04/17 05:36:06;;;;;;;13.7;9.8;;;;;;;2.29;84.74805;946.1052;;;;
2022/04/17 05:38:34;;;;;;;6.8;5.3;;;;;;;3.16;81.52246;946.1141;;;;
2022/04/17 05:40:59;;;;;;;5.8;4.7;;;;;;;3.89;77.54785;946.0097;;;;
2022/04/17 05:43:24;;;;;;;6.8;4.8;;;;;;;4.57;73.78809;945.9958;;;;
2022/04/17 05:45:53;;;;;;;4.9;4;;;;;;;5.09;71.85938;946.0095;;;;
2022/04/17 05:48:19;;;;;;;4.5;3.9;;;;;;;6.91;67.51172;946.0356;;;;
2022/04/17 05:50:49;;;;;;;4.7;4;;;;;;;7.32;64.31445;945.9661;;;;
2022/04/17 05:53:14;;;;;;;4.7;3.9;;;;;;;7.4;62.69238;945.9353;;;;
2022/04/17 05:55:39;;;;;;;4.9;4.2;;;;;;;8.66;58.9668;945.85;;;;
2022/04/17 05:58:10;;;;;;;4.7;3.9;;;;;;;10.86;53.42871;945.9083;;;;
2022/04/17 06:00:36;;;;;;;4.6;3.8;;;;;;;10.45;51.55176;945.8912;;;;
2022/04/17 06:03:03;;;;;;;5.3;3.9;;;;;;;9.77;53.30469;945.912;;;;
2022/04/17 06:05:30;;;;;;;4.8;4.1;;;;;;;8.18;59.00195;945.9567;;;;
2022/04/17 06:08:01;;;;;;;5.5;4.3;;;;;;;10.71;53.86621;945.947;;;;
2022/04/17 06:10:35;;;;;;;4.6;3.9;;;;;;;11.8;49.60645;945.8619;;;;
2022/04/17 06:13:06;;;;;;;4.8;3.8;;;;;;;10.4;51.21582;945.8722;;;;
2022/04/17 06:15:41;;;;;;;4.4;3.9;;;;;;;9.19;54.36035;945.8367;;;;
2022/04/17 06:18:13;;;;;;;4.4;3.8;;;;;;;8.42;57.72949;945.8125;;;;
2022/04/17 06:20:41;;;;;;;4.8;4;;;;;;;10.31;56.83008;945.8495;;;;
2022/04/17 06:23:10;;;;;;;5.1;4.2;;;;;;;12.18;50.02832;945.8287;;;;
2022/04/17 06:25:36;;;;;;;6.3;4.3;;;;;;;12.71;48.48047;945.7589;;;;
2022/04/17 06:28:03;;;;;;;6.2;4.4;;;;;;;14.43;44.12305;945.6827;;;;
2022/04/17 06:30:30;;;;;;;4.8;3.8;;;;;;;14.69;41.9707;945.616;;;;
2022/04/17 06:33:00;;;;;;;4.9;4.4;;;;;;;16.07;40.48535;945.4687;;;;
2022/04/17 06:35:25;;;;;;;5;4.4;;;;;;;16.81;38.39941;945.5531;;;;
2022/04/17 06:37:54;;;;;;;4.4;4;;;;;;;16.26;40.15527;945.5613;;;;
2022/04/17 06:40:19;;;;;;;5.1;4.2;;;;;;;17.62;37.48242;945.5234;;;;
2022/04/17 06:42:48;;;;;;;4.8;4;;;;;;;18.83;35.07227;945.503;;;;
2022/04/17 06:45:19;;;;;;;4.7;4.3;;;;;;;19.09;34.62793;945.5156;;;;
2022/04/17 06:47:50;;;;;;;5.3;4.2;;;;;;;19.62;34.17969;945.5214;;;;
2022/04/17 06:50:22;;;;;;;5.7;5.1;;;;;;;18.27;35.63281;945.5379;;;;
2022/04/17 06:52:51;;;;;;;5.6;5;;;;;;;15.86;38.8125;945.6699;;;;
2022/04/17 06:55:22;;;;;;;5.5;4.8;;;;;;;13.93;43.86523;945.6157;;;;
2022/04/17 06:57:55;;;;;;;5;4.5;;;;;;;15.55;40.06738;945.5955;;;;
2022/04/17 07:00:26;;;;;;;4.5;4;;;;;;;16.67;38.06152;945.5648;;;;
2022/04/17 07:02:57;;;;;;;4.9;4.5;;;;;;;16.14;38.96387;945.6052;;;;
2022/04/17 07:05:23;;;;;;;5;4.5;;;;;;;16.18;39.19922;945.5844;;;;
2022/04/17 07:07:51;;;;;;;4.9;4.3;;;;;;;16.68;38.24805;945.5704;;;;
2022/04/17 07:10:17;;;;;;;5;4.5;;;;;;;15.89;39.90234;945.5896;;;;
2022/04/17 07:12:44;;;;;;;5.3;4.8;;;;;;;16.46;40.15039;945.5276;;;;
2022/04/17 07:15:07;;;;;;;5.5;4.8;;;;;;;17.23;37.4834;945.4874;;;;
2022/04/17 07:17:38;;;;;;;5.2;4.4;;;;;;;15.92;39.26855;945.5824;;;;
2022/04/17 07:20:07;;;;;;;4.8;4.4;;;;;;;16.43;39.44141;945.4441;;;;
2022/04/17 07:22:33;;;;;;;4.4;4;;;;;;;15.74;39.70313;945.5698;;;;
2022/04/17 07:25:03;;;;;;;4.5;4.1;;;;;;;14.87;42.0918;945.6492;;;;
2022/04/17 07:27:29;;;;;;;4.6;4.2;;;;;;;15.4;41.20801;945.6373;;;;
2022/04/17 07:29:55;;;;;;;4.5;4.1;;;;;;;14.98;41.16797;945.6914;;;;
2022/04/17 07:32:25;;;;;;;4.9;4.5;;;;;;;14.76;41.59668;945.6829;;;;
2022/04/17 07:34:50;;;;;;;4.7;4.3;;;;;;;14.81;41.31348;945.7305;;;;
2022/04/17 07:37:13;;;;;;;5;4.5;;;;;;;14.86;41.99805;945.7406;;;;
2022/04/17 07:39:43;;;;;;;5.2;4.7;;;;;;;14.91;42.11914;945.7296;;;;
2022/04/17 07:42:08;;;;;;;5;4.5;;;;;;;15.7;41.10938;945.6702;;;;
2022/04/17 07:44:36;;;;;;;6.6;5.1;;;;;;;15.26;40.84766;945.7477;;;;
2022/04/17 07:47:02;;;;;;;5;4.5;;;;;;;15.63;40.12012;945.6653;;;;
2022/04/17 07:49:29;;;;;;;5.2;4.7;;;;;;;15.76;40.58203;945.7619;;;;
2022/04/17 07:51:56;;;;;;;5.7;5.1;;;;;;;14.31;43.63867;945.8338;;;;
2022/04/17 07:54:26;;;;;;;5.7;5.1;;;;;;;15.67;40.44727;945.7175;;;;
2022/04/17 08:00:32;;;;;;;5.1;4.6;;;;;;;17.06;37.79492;945.5682;;;;
2022/04/17 08:03:06;;;;;;;5.8;5.2;;;;;;;17.88;36.47168;945.5338;;;;
2022/04/17 08:05:25;;;;;;;5.3;4.4;;;;;;;19.24;33.45117;945.4803;;;;
2022/04/17 08:07:50;;;;;;;5.2;4.6;;;;;;;20.32;32.2959;945.4227;;;;
2022/04/17 08:10:16;;;;;;;4.7;4.3;;;;;;;19.87;32.24023;945.2764;;;;
2022/04/17 08:12:41;;;;;;;5.5;4.9;;;;;;;20.53;31.84277;945.2361;;;;
2022/04/17 08:15:15;;;;;;;5;4.5;;;;;;;21.03;30.61621;945.2154;;;;
2022/04/17 08:17:48;;;;;;;4.9;4.4;;;;;;;20.96;31.93262;945.1752;;;;
2022/04/17 08:20:19;;;;;;;4.9;4.4;;;;;;;21.41;29.90527;945.0916;;;;
2022/04/17 08:22:49;;;;;;;5;4.6;;;;;;;20.94;30.62207;945.1724;;;;
2022/04/17 08:25:19;;;;;;;5.1;4.6;;;;;;;19.83;32.36523;945.1575;;;;
2022/04/17 08:27:49;;;;;;;5.3;4.4;;;;;;;20.72;31.21387;945.0928;;;;
2022/04/17 08:30:20;;;;;;;5.5;5;;;;;;;19.49;33.54004;945.101;;;;
2022/04/17 08:32:51;;;;;;;5.9;5.3;;;;;;;19.77;32.25488;945.0012;;;;
2022/04/17 08:38:26;;;;;;;5.1;4.3;;;;;;;19.21;35.12598;944.9998;;;;
2022/04/17 08:40:54;;;;;;;6.4;4.3;;;;;;;20.75;32.11621;944.9239;;;;
2022/04/17 08:43:21;;;;;;;4.8;4.1;;;;;;;21;31.44434;944.9655;;;;
2022/04/17 08:45:54;;;;;;;5.6;4.3;;;;;;;21.87;30.01758;944.9904;;;;
2022/04/17 08:58:25;;;;;;;5;4.6;;;;;;;19.07;32.49512;944.8886;;;;
2022/04/17 09:00:55;;;;;;;5.2;4.5;;;;;;;17.81;35.80371;944.9467;;;;
2022/04/17 09:03:20;;;;;;;5.4;4.9;;;;;;;18.28;34.59766;944.9169;;;;
2022/04/17 09:05:47;;;;;;;5.3;4.8;;;;;;;17.69;36.08496;944.8228;;;;
2022/04/17 09:08:12;;;;;;;4.8;4.3;;;;;;;18.61;32.94922;944.767;;;;
2022/04/17 09:13:04;;;;;;;5.5;4.6;;;;;;;18.42;34.90039;944.7336;;;;
2022/04/17 09:15:37;;;;;;;5.2;4.7;;;;;;;18.66;34.38477;944.6841;;;;
2022/04/17 09:18:02;;;;;;;5.1;4.6;;;;;;;18.53;34.28125;944.73;;;;
2022/04/17 09:20:31;;;;;;;5;4.5;;;;;;;19.06;33.55469;944.6086;;;;
2022/04/17 09:23:01;;;;;;;5;4.5;;;;;;;18.17;35.08984;944.55;;;;
2022/04/17 09:25:27;;;;;;;4.8;4.3;;;;;;;17.63;37.98242;944.5845;;;;
2022/04/17 09:27:56;;;;;;;4.8;4.3;;;;;;;17.57;36.35254;944.4252;;;;
2022/04/17 09:30:38;;;;;;;6.3;5;;;;;;;17.47;36.42676;944.3244;;;;
2022/04/17 09:33:01;;;;;;;5.1;4.6;;;;;;;17.43;36.33008;944.2845;;;;
2022/04/17 09:35:42;;;;;;;5.4;4.9;;;;;;;16.39;40.3291;944.2051;;;;
2022/04/17 09:38:11;;;;;;;5.8;5.2;;;;;;;15.93;39.95117;944.2386;;;;
2022/04/17 09:40:37;;;;;;;7.2;5.3;;;;;;;15.73;40.37207;944.2297;;;;
2022/04/17 09:43:07;;;;;;;5.6;4.8;;;;;;;16.25;38.56934;944.1573;;;;
2022/04/17 09:45:32;;;;;;;5.8;5.2;;;;;;;16.13;39.04492;944.2095;;;;
2022/04/17 09:48:03;;;;;;;5.2;4.7;;;;;;;15.57;40.29883;944.1697;;;;
2022/04/17 09:50:29;;;;;;;5.9;5.1;;;;;;;15.41;42.0625;944.1799;;;;
2022/04/17 09:52:56;;;;;;;5.9;5;;;;;;;14.78;43.57129;944.1299;;;;
2022/04/17 09:55:47;;;;;;;5.7;5.1;;;;;;;14.94;43.5752;944.0136;;;;
2022/04/17 09:58:13;;;;;;;5.2;4.7;;;;;;;15.25;41.37793;944.0435;;;;
2022/04/17 10:00:38;;;;;;;5.6;5;;;;;;;14.8;43.44629;944.025;;;;
2022/04/17 10:03:06;;;;;;;5.7;4.8;;;;;;;14.71;42.43359;943.9799;;;;
2022/04/17 10:05:35;;;;;;;5.9;5.3;;;;;;;14.18;45.08691;943.9934;;;;
2022/04/17 10:08:00;;;;;;;4.8;4.3;;;;;;;14.63;42.12695;944.0366;;;;
2022/04/17 10:10:25;;;;;;;5.9;4.8;;;;;;;14.85;43.48535;943.9196;;;;
2022/04/17 10:12:54;;;;;;;5.2;4.4;;;;;;;14.14;42.41211;943.8731;;;;
2022/04/17 10:15:32;;;;;;;4.9;4.4;;;;;;;14.38;42.28613;943.8624;;;;
2022/04/17 10:17:57;;;;;;;5;4.5;;;;;;;14.99;43.30371;943.7778;;;;
2022/04/17 10:20:34;;;;;;;4.9;4.2;;;;;;;14.54;42.50879;943.717;;;;
2022/04/17 10:23:02;;;;;;;5.2;4.1;;;;;;;15.23;40.16406;943.6294;;;;
2022/04/17 10:25:24;;;;;;;4.6;4.1;;;;;;;14.87;42.25195;943.5836;;;;
2022/04/17 10:27:49;;;;;;;4.9;3.7;;;;;;;15.95;39.81543;943.5637;;;;
2022/04/17 10:30:18;;;;;;;4.6;4.1;;;;;;;15.88;40.8252;943.5792;;;;
2022/04/17 10:32:44;;;;;;;4.4;4;;;;;;;15.62;40.4668;943.3997;;;;
2022/04/17 10:35:14;;;;;;;4.8;4;;;;;;;14.68;39.9873;943.603;;;;
2022/04/17 10:37:41;;;;;;;4;3.4;;;;;;;15.21;38.55957;943.3876;;;;
2022/04/17 10:40:12;;;;;;;3.5;3.2;;;;;;;14.94;39.46875;943.3784;;;;
2022/04/17 10:45:42;;;;;;;3.3;3;;;;;;;15.48;38.21191;943.4064;;;;
2022/04/17 10:48:10;;;;;;;3.2;2.8;;;;;;;16.1;36.01172;943.305;;;;
2022/04/17 10:50:35;;;;;;;3.5;2.8;;;;;;;16.68;34.88965;943.2583;;;;
2022/04/17 10:53:44;;;;;;;5.3;3.5;;;;;;;16.81;36.23145;943.1875;;;;
2022/04/17 10:56:09;;;;;;;4.2;3;;;;;;;16.17;37.42871;943.1415;;;;
2022/04/17 10:58:34;;;;;;;3.2;2.9;;;;;;;17;34.30078;943.1261;;;;
2022/04/17 11:01:47;;;;;;;4.1;2.7;;;;;;;17.9;32.81543;943.1172;;;;
2022/04/17 11:04:13;;;;;;;3;2.6;;;;;;;18.65;31.24316;942.9125;;;;
2022/04/17 11:06:38;;;;;;;3.1;2.2;;;;;;;18.86;32.27051;942.8541;;;;
2022/04/17 11:09:07;;;;;;;3;2.5;;;;;;;19.51;29.76563;942.8943;;;;
2022/04/17 11:11:32;;;;;;;3;2.7;;;;;;;19.29;31.92871;942.8315;;;;
2022/04/17 11:13:57;;;;;;;3.1;2.7;;;;;;;18.69;31.15234;942.8539;;;;
2022/04/17 11:16:22;;;;;;;3.4;2.5;;;;;;;19;30.87207;942.9099;;;;
2022/04/17 11:18:47;;;;;;;2.7;2.4;;;;;;;19.34;30.42969;942.8462;;;;
2022/04/17 11:21:13;;;;;;;2.8;2.3;;;;;;;18.55;33.46973;942.8325;;;;
2022/04/17 11:24:13;;;;;;;4;2.1;;;;;;;18.8;30.06641;942.7506;;;;
2022/04/17 11:26:43;;;;;;;2.7;2.5;;;;;;;19.39;29.59473;942.7402;;;;
2022/04/17 11:29:08;;;;;;;3.1;2.8;;;;;;;19.37;29.60449;942.5678;;;;
2022/04/17 11:31:35;;;;;;;2.8;2.3;;;;;;;19.24;29.80566;942.5748;;;;
2022/04/17 11:34:43;;;;;;;2.8;2.4;;;;;;;19.03;29.94238;942.6119;;;;
2022/04/17 11:37:07;;;;;;;2.9;2.5;;;;;;;18.88;30.2002;942.5075;;;;
2022/04/17 11:39:34;;;;;;;2.6;2.4;;;;;;;18.54;30.80469;942.5222;;;;
2022/04/17 11:41:59;;;;;;;2.7;2.4;;;;;;;18.11;31.63477;942.4348;;;;
2022/04/17 11:44:24;;;;;;;2.9;2.6;;;;;;;18.11;32.58691;942.3817;;;;
2022/04/17 11:46:53;;;;;;;2.7;2.5;;;;;;;18.12;32.16992;942.3459;;;;
2022/04/17 11:49:18;;;;;;;2.9;2.6;;;;;;;17.74;33.37207;942.243;;;;
2022/04/17 11:52:02;;;;;;;3.8;2.9;;;;;;;17.27;34.68262;942.2431;;;;
2022/04/17 11:54:28;;;;;;;4.3;3;;;;;;;16.74;35.20801;942.2269;;;;
2022/04/17 11:56:53;;;;;;;2.8;2.5;;;;;;;16.78;34.15625;942.3528;;;;
2022/04/17 11:59:24;;;;;;;2.9;2.6;;;;;;;16.81;34.15918;942.2786;;;;
2022/04/17 12:01:55;;;;;;;2.9;2.6;;;;;;;16.46;34.4668;942.2758;;;;
2022/04/17 12:04:26;;;;;;;3.4;2.6;;;;;;;17.31;34.03516;942.2685;;;;
2022/04/17 12:06:58;;;;;;;2.7;2.4;;;;;;;17.12;33.01172;942.2789;;;;
2022/04/17 12:09:30;;;;;;;2.6;2.4;;;;;;;17.66;32.19434;942.1115;;;;
2022/04/17 12:11:55;;;;;;;2.9;2.3;;;;;;;17.89;31.62988;942.0481;;;;
2022/04/17 12:14:24;;;;;;;2.6;2.4;;;;;;;17.49;33.57422;942.1099;;;;
2022/04/17 12:16:49;;;;;;;4.1;2.8;;;;;;;16.68;34.55469;942.0584;;;;
2022/04/17 12:19:18;;;;;;;2.9;2.6;;;;;;;16.56;34.6377;942.0886;;;;
2022/04/17 12:21:43;;;;;;;2.7;2.5;;;;;;;17.27;34.68164;942.1563;;;;
2022/04/17 12:24:13;;;;;;;2.8;2.5;;;;;;;18;33.3916;941.9959;;;;
2022/04/17 12:26:39;;;;;;;3.1;2.4;;;;;;;17.15;33.69824;942.0403;;;;
2022/04/17 12:29:09;;;;;;;4.7;2.7;;;;;;;16.87;32.53027;942.1063;;;;
2022/04/17 12:31:34;;;;;;;3.9;2.3;;;;;;;17.16;31.68262;942.0516;;;;
2022/04/17 12:33:59;;;;;;;2.1;1.9;;;;;;;17.75;30.67969;942.0511;;;;
2022/04/17 12:36:25;;;;;;;2.3;2.1;;;;;;;18.43;29.27344;942.0449;;;;
2022/04/17 12:38:50;;;;;;;2.5;2;;;;;;;18.75;29.65625;941.9816;;;;
2022/04/17 12:42:06;;;;;;;2.2;1.9;;;;;;;19.06;28.88574;941.9528;;;;
2022/04/17 12:44:34;;;;;;;2.1;1.9;;;;;;;18.02;30.38477;941.9658;;;;
2022/04/17 12:46:59;;;;;;;2.3;2.1;;;;;;;18.29;30.77539;941.9369;;;;
2022/04/17 12:49:29;;;;;;;2.8;1.8;;;;;;;17.87;32.05762;941.8123;;;;
2022/04/17 12:51:54;;;;;;;2.3;2.1;;;;;;;18.13;30.69434;941.88;;;;
2022/04/17 12:54:25;;;;;;;2.5;2;;;;;;;17.64;31.62402;941.8314;;;;
2022/04/17 12:56:50;;;;;;;3.1;2.1;;;;;;;17.36;30.78027;941.8583;;;;
2022/04/17 12:59:15;;;;;;;2.3;1.8;;;;;;;17.02;31.39453;941.8606;;;;
2022/04/17 13:01:40;;;;;;;2.7;2;;;;;;;17.02;31.97363;941.9459;;;;
2022/04/17 13:04:08;;;;;;;2.1;1.9;;;;;;;16.9;31.46582;941.7891;;;;
2022/04/17 13:06:33;;;;;;;2.3;1.9;;;;;;;16.52;33.99707;941.7866;;;;
2022/04/17 13:09:03;;;;;;;2.4;2;;;;;;;15.61;32.98047;941.7849;;;;
2022/04/17 13:17:06;;;;;;;2.3;2;;;;;;;14.76;34.24121;941.6647;;;;
2022/04/17 13:19:31;;;;;;;2.2;1.7;;;;;;;14.55;35.27246;941.7263;;;;
2022/04/17 13:21:58;;;;;;;2.3;1.8;;;;;;;14.82;35.12305;941.6657;;;;
2022/04/17 13:24:23;;;;;;;2.7;1.7;;;;;;;14.6;35.09375;941.5836;;;;
2022/04/17 13:26:52;;;;;;;2.7;2.3;;;;;;;14.67;34.94922;941.5654;;;;
2022/04/17 13:29:27;;;;;;;2.1;1.9;;;;;;;14.57;36.92285;941.5508;;;;
2022/04/17 13:31:53;;;;;;;2.4;2.2;;;;;;;14.64;35.54492;941.5133;;;;
2022/04/17 13:34:19;;;;;;;3.1;1.9;;;;;;;14.67;34.68359;941.5341;;;;
2022/04/17 13:38:10;;;;;;;2.3;1.7;;;;;;;14.73;35.44922;941.5446;;;;
2022/04/17 13:39:15;;;;;;;2.6;1.7;;;;;;;14.93;33.35547;941.3833;;;;
2022/04/17 13:41:44;;;;;;;1.9;1.7;;;;;;;15.05;34.32129;941.3351;;;;
2022/04/17 13:44:09;;;;;;;3.3;1.9;;;;;;;14.97;34.96094;941.2838;;;;
2022/04/17 13:46:37;;;;;;;3;1.8;;;;;;;14.85;34.55957;941.3089;;;;
2022/04/17 13:49:02;;;;;;;2.1;1.9;;;;;;;14.86;34.52539;941.3867;;;;
2022/04/17 13:51:31;;;;;;;1.9;1.5;;;;;;;14.84;34.73242;941.3257;;;;
2022/04/17 13:54:02;;;;;;;2.2;1.6;;;;;;;14.56;35.41309;941.3897;;;;
2022/04/17 13:56:33;;;;;;;2;1.8;;;;;;;14.69;34.61621;941.3522;;;;
2022/04/17 13:59:05;;;;;;;1.7;1.5;;;;;;;14.68;34.77734;941.3097;;;;
2022/04/17 14:01:26;;;;;;;2.1;1.5;;;;;;;14.69;35.44629;941.2992;;;;
2022/04/17 14:03:52;;;;;;;1.8;1.6;;;;;;;14.84;33.86719;941.2335;;;;
2022/04/17 14:06:24;;;;;;;2.5;1.6;;;;;;;14.79;34.0127;941.287;;;;
2022/04/17 14:08:52;;;;;;;2.5;1.6;;;;;;;14.45;33.66406;941.2431;;;;
2022/04/17 14:11:17;;;;;;;1.7;1.4;;;;;;;14.62;35.20996;941.2841;;;;
2022/04/17 14:13:44;;;;;;;1.6;1.5;;;;;;;14.51;33.71484;941.1381;;;;
2022/04/17 14:16:09;;;;;;;2.7;1.6;;;;;;;14.68;33.50879;941.1461;;;;
2022/04/17 14:18:38;;;;;;;1.9;1.2;;;;;;;14.78;32.97461;941.0978;;;;
2022/04/17 14:21:07;;;;;;;1.6;1.5;;;;;;;14.27;34.12207;941.0023;;;;
2022/04/17 14:23:33;;;;;;;3.2;1.6;;;;;;;14.27;33.94922;941.0432;;;;
2022/04/17 14:26:03;;;;;;;2;1.5;;;;;;;14.21;33.35742;941.0508;;;;
2022/04/17 14:28:32;;;;;;;2.5;1.7;;;;;;;13.67;34.8916;941.053;;;;
2022/04/17 14:30:57;;;;;;;2.1;1.5;;;;;;;13.73;34.72461;941.1371;;;;
2022/04/17 14:33:27;;;;;;;2.5;1.8;;;;;;;13.85;34.03125;941.1177;;;;
2022/04/17 14:35:57;;;;;;;2.5;1.6;;;;;;;13.89;35.43945;941.0784;;;;
2022/04/17 14:38:22;;;;;;;2.7;1.9;;;;;;;13.92;33.43848;940.9808;;;;
2022/04/17 14:40:52;;;;;;;1.5;1.4;;;;;;;13.71;35.125;940.9994;;;;
2022/04/17 14:43:21;;;;;;;2;1.5;;;;;;;13.83;33.82422;940.9286;;;;
2022/04/17 14:45:46;;;;;;;1.8;1.4;;;;;;;13.95;33.625;940.96;;;;
2022/04/17 14:48:14;;;;;;;1.7;1.6;;;;;;;14;33.75586;940.9056;;;;
2022/04/17 14:50:39;;;;;;;2.2;1.7;;;;;;;13.81;34.90332;940.8507;;;;
2022/04/17 14:53:09;;;;;;;1.7;1.5;;;;;;;13.85;35.9873;940.9975;;;;
2022/04/17 14:55:40;;;;;;;1.6;1.5;;;;;;;13.79;35.02734;940.9067;;;;
2022/04/17 14:58:05;;;;;;;1.6;1.5;;;;;;;13.79;34.0498;940.9451;;;;
2022/04/17 15:00:33;;;;;;;4.7;1.7;;;;;;;13.94;34.5791;940.8918;;;;
2022/04/17 15:02:58;;;;;;;1.8;1.6;;;;;;;13.93;33.73926;940.9311;;;;
2022/04/17 15:05:30;;;;;;;2;1.3;;;;;;;13.91;34.99121;940.8862;;;;
2022/04/17 15:08:00;;;;;;;2.5;1.4;;;;;;;13.66;33.9375;940.8697;;;;
2022/04/17 15:10:32;;;;;;;1.4;1.3;;;;;;;13.55;34.43359;940.8516;;;;
2022/04/17 15:13:04;;;;;;;2.9;1.4;;;;;;;13.65;34.66113;940.8201;;;;
2022/04/17 15:15:29;;;;;;;1.4;1.3;;;;;;;13.51;36.53418;940.7683;;;;
2022/04/17 15:17:53;;;;;;;1.6;1.5;;;;;;;13.44;36.82715;940.6345;;;;
2022/04/17 15:20:23;;;;;;;2.7;1.4;;;;;;;13.29;37.43457;940.7595;;;;
2022/04/17 15:22:48;;;;;;;2.7;1.6;;;;;;;13.56;35.42285;940.7396;;;;
2022/04/17 15:25:17;;;;;;;2.2;1.4;;;;;;;13.68;35.45703;940.7585;;;;
2022/04/17 15:27:43;;;;;;;1.5;1.4;;;;;;;13.37;36.13281;940.6797;;;;
2022/04/17 15:30:08;;;;;;;2.2;1.5;;;;;;;13.07;36.2793;940.6909;;;;
2022/04/17 15:32:37;;;;;;;5.3;1.5;;;;;;;12.92;34.86621;940.6485;;;;
2022/04/17 15:35:02;;;;;;;1.6;1.4;;;;;;;12.81;35.52344;940.6342;;;;
2022/04/17 15:37:28;;;;;;;1.9;1.3;;;;;;;12.58;36.55957;940.6135;;;;
2022/04/17 15:39:52;;;;;;;3.7;1.5;;;;;;;12.44;36.77832;940.6535;;;;
2022/04/17 15:42:20;;;;;;;1.4;1.3;;;;;;;12.36;36.15137;940.5895;;;;
2022/04/17 15:49:44;;;;;;;3.4;1.6;;;;;;;12.33;37.33008;940.5095;;;;